sensor_id;sensor_type;location;lat;lon;timestamp;pressure;altitude;pressure_sealevel;temperature;humidity
17383;BME280;8809;51.892;8.384;2023-01-25T00:01:33;102677.78;;;1.40;100.00
17383;BME280;8809;51.892;8.384;2023-01-25T00:04:01;102674.13;;;1.38;100.00
17383;BME280;8809;51.892;8.384;2023-01-25T00:06:28;102669.88;;;1.39;100.00
17383;BME280;8809;51.892;8.384;2023-01-25T00:08:57;102676.19;;;1.34;100.00
17383;BME280;8809;51.892;8.384;2023-01-25T00:11:26;102668.63;;;1.35;100.00
17383;BME280;8809;51.892;8.384;2023-01-25T00:14:03;102665.72;;;1.32;100.00
17383;BME280;8809;51.892;8.384;2023-01-25T00:16:33;102663.34;;;1.34;100.00
17383;BME280;8809;51.892;8.384;2023-01-25T00:19:00;102656.69;;;1.36;100.00
17383;BME280;8809;51.892;8.384;2023-01-25T00:21:27;102654.84;;;1.35;100.00
17383;BME280;8809;51.892;8.384;2023-01-25T00:23:54;102662.56;;;1.35;100.00
17383;BME280;8809;51.892;8.384;2023-01-25T00:26:28;102658.94;;;1.33;100.00
17383;BME280;8809;51.892;8.384;2023-01-25T00:28:58;102656.25;;;1.24;100.00
17383;BME280;8809;51.892;8.384;2023-01-25T00:31:40;102650.75;;;1.21;100.00
17383;BME280;8809;51.892;8.384;2023-01-25T00:34:38;102645.44;;;1.20;100.00
17383;BME280;8809;51.892;8.384;2023-01-25T00:37:19;102637.56;;;1.18;100.00
17383;BME280;8809;51.892;8.384;2023-01-25T00:39:46;102634.69;;;1.15;100.00
17383;BME280;8809;51.892;8.384;2023-01-25T00:42:15;102628.53;;;1.22;100.00
17383;BME280;8809;51.892;8.384;2023-01-25T00:44:44;102618.63;;;1.25;100.00
17383;BME280;8809;51.892;8.384;2023-01-25T00:47:13;102618.75;;;1.26;100.00
17383;BME280;8809;51.892;8.384;2023-01-25T00:49:41;102619.75;;;1.20;100.00
17383;BME280;8809;51.892;8.384;2023-01-25T00:52:08;102613.28;;;1.23;100.00
17383;BME280;8809;51.892;8.384;2023-01-25T00:54:42;102608.91;;;1.22;100.00
17383;BME280;8809;51.892;8.384;2023-01-25T00:57:09;102606.81;;;1.27;100.00
17383;BME280;8809;51.892;8.384;2023-01-25T00:59:38;102609.56;;;1.28;100.00
17383;BME280;8809;51.892;8.384;2023-01-25T01:02:12;102611.38;;;1.29;100.00
17383;BME280;8809;51.892;8.384;2023-01-25T01:04:39;102605.50;;;1.30;100.00
17383;BME280;8809;51.892;8.384;2023-01-25T01:07:06;102618.25;;;1.22;100.00
17383;BME280;8809;51.892;8.384;2023-01-25T01:09:43;102611.47;;;1.22;100.00
17383;BME280;8809;51.892;8.384;2023-01-25T01:12:10;102614.78;;;1.21;100.00
17383;BME280;8809;51.892;8.384;2023-01-25T01:14:40;102613.47;;;1.25;100.00
17383;BME280;8809;51.892;8.384;2023-01-25T01:17:13;102607.72;;;1.27;100.00
17383;BME280;8809;51.892;8.384;2023-01-25T01:19:41;102612.31;;;1.30;100.00
17383;BME280;8809;51.892;8.384;2023-01-25T01:22:10;102606.41;;;1.31;100.00
17383;BME280;8809;51.892;8.384;2023-01-25T01:24:57;102605.13;;;1.34;100.00
17383;BME280;8809;51.892;8.384;2023-01-25T01:27:27;102611.13;;;1.35;100.00
17383;BME280;8809;51.892;8.384;2023-01-25T01:29:59;102607.81;;;1.36;100.00
17383;BME280;8809;51.892;8.384;2023-01-25T01:32:40;102610.75;;;1.39;100.00
17383;BME280;8809;51.892;8.384;2023-01-25T01:35:14;102613.41;;;1.32;100.00
17383;BME280;8809;51.892;8.384;2023-01-25T01:37:41;102621.09;;;1.32;100.00
17383;BME280;8809;51.892;8.384;2023-01-25T01:40:13;102614.53;;;1.27;100.00
17383;BME280;8809;51.892;8.384;2023-01-25T01:43:05;102618.00;;;1.27;100.00
17383;BME280;8809;51.892;8.384;2023-01-25T01:45:49;102613.03;;;1.29;100.00
17383;BME280;8809;51.892;8.384;2023-01-25T01:48:20;102618.19;;;1.29;100.00
17383;BME280;8809;51.892;8.384;2023-01-25T01:50:51;102615.63;;;1.29;100.00
17383;BME280;8809;51.892;8.384;2023-01-25T01:53:21;102615.97;;;1.32;100.00
17383;BME280;8809;51.892;8.384;2023-01-25T01:55:57;102619.09;;;1.29;100.00
17383;BME280;8809;51.892;8.384;2023-01-25T01:58:26;102618.34;;;1.30;100.00
17383;BME280;8809;51.892;8.384;2023-01-25T02:01:03;102615.06;;;1.31;100.00
17383;BME280;8809;51.892;8.384;2023-01-25T02:03:34;102617.44;;;1.30;100.00
17383;BME280;8809;51.892;8.384;2023-01-25T02:06:31;102614.13;;;1.31;100.00
17383;BME280;8809;51.892;8.384;2023-01-25T02:09:00;102611.00;;;1.33;100.00
17383;BME280;8809;51.892;8.384;2023-01-25T02:11:34;102610.81;;;1.32;100.00
17383;BME280;8809;51.892;8.384;2023-01-25T02:14:02;102604.94;;;1.33;100.00
17383;BME280;8809;51.892;8.384;2023-01-25T02:16:32;102604.34;;;1.35;100.00
17383;BME280;8809;51.892;8.384;2023-01-25T02:19:00;102598.44;;;1.36;100.00
17383;BME280;8809;51.892;8.384;2023-01-25T02:21:53;102602.69;;;1.36;100.00
17383;BME280;8809;51.892;8.384;2023-01-25T02:24:36;102596.78;;;1.37;100.00
17383;BME280;8809;51.892;8.384;2023-01-25T02:27:07;102597.88;;;1.39;100.00
17383;BME280;8809;51.892;8.384;2023-01-25T02:29:34;102597.88;;;1.39;100.00
17383;BME280;8809;51.892;8.384;2023-01-25T02:32:04;102601.19;;;1.38;100.00
17383;BME280;8809;51.892;8.384;2023-01-25T02:34:33;102598.13;;;1.33;100.00
17383;BME280;8809;51.892;8.384;2023-01-25T02:37:01;102594.69;;;1.26;100.00
17383;BME280;8809;51.892;8.384;2023-01-25T02:39:31;102595.47;;;1.25;100.00
17383;BME280;8809;51.892;8.384;2023-01-25T02:41:58;102583.00;;;1.21;100.00
17383;BME280;8809;51.892;8.384;2023-01-25T02:44:28;102586.72;;;1.16;100.00
17383;BME280;8809;51.892;8.384;2023-01-25T02:46:57;102583.75;;;1.20;100.00
17383;BME280;8809;51.892;8.384;2023-01-25T02:49:26;102587.06;;;1.19;100.00
17383;BME280;8809;51.892;8.384;2023-01-25T02:51:54;102582.34;;;1.15;100.00
17383;BME280;8809;51.892;8.384;2023-01-25T02:54:23;102580.09;;;1.18;100.00
17383;BME280;8809;51.892;8.384;2023-01-25T02:57:04;102566.94;;;1.15;100.00
17383;BME280;8809;51.892;8.384;2023-01-25T02:59:39;102575.94;;;1.11;100.00
17383;BME280;8809;51.892;8.384;2023-01-25T03:02:27;102571.53;;;1.10;100.00
17383;BME280;8809;51.892;8.384;2023-01-25T03:05:06;102570.97;;;1.13;100.00
17383;BME280;8809;51.892;8.384;2023-01-25T03:08:31;102567.97;;;1.17;100.00
17383;BME280;8809;51.892;8.384;2023-01-25T03:15:30;102550.50;;;1.21;100.00
17383;BME280;8809;51.892;8.384;2023-01-25T03:18:59;102548.44;;;1.26;100.00
17383;BME280;8809;51.892;8.384;2023-01-25T03:28:53;102552.72;;;1.02;100.00
17383;BME280;8809;51.892;8.384;2023-01-25T03:31:34;102540.69;;;0.94;100.00
17383;BME280;8809;51.892;8.384;2023-01-25T03:34:40;102531.81;;;0.99;100.00
17383;BME280;8809;51.892;8.384;2023-01-25T03:37:27;102517.66;;;1.03;100.00
17383;BME280;8809;51.892;8.384;2023-01-25T03:40:40;102500.41;;;1.02;100.00
17383;BME280;8809;51.892;8.384;2023-01-25T03:46:19;102504.97;;;1.04;100.00
17383;BME280;8809;51.892;8.384;2023-01-25T03:48:49;102500.75;;;1.05;100.00
17383;BME280;8809;51.892;8.384;2023-01-25T03:51:17;102501.72;;;0.98;100.00
17383;BME280;8809;51.892;8.384;2023-01-25T03:53:53;102500.50;;;0.95;100.00
17383;BME280;8809;51.892;8.384;2023-01-25T03:56:59;102498.56;;;0.85;100.00
17383;BME280;8809;51.892;8.384;2023-01-25T03:59:46;102497.13;;;0.80;100.00
17383;BME280;8809;51.892;8.384;2023-01-25T04:02:34;102494.63;;;0.73;100.00
17383;BME280;8809;51.892;8.384;2023-01-25T04:05:18;102489.41;;;0.64;100.00
17383;BME280;8809;51.892;8.384;2023-01-25T04:07:55;102484.84;;;0.62;100.00
17383;BME280;8809;51.892;8.384;2023-01-25T04:14:28;102479.03;;;0.56;100.00
17383;BME280;8809;51.892;8.384;2023-01-25T04:24:24;102482.09;;;0.60;100.00
17383;BME280;8809;51.892;8.384;2023-01-25T04:27:09;102481.19;;;0.60;100.00
17383;BME280;8809;51.892;8.384;2023-01-25T04:30:07;102478.44;;;0.58;100.00
17383;BME280;8809;51.892;8.384;2023-01-25T04:32:49;102471.31;;;0.56;100.00
17383;BME280;8809;51.892;8.384;2023-01-25T04:35:54;102468.03;;;0.57;100.00
17383;BME280;8809;51.892;8.384;2023-01-25T04:38:24;102470.91;;;0.60;100.00
17383;BME280;8809;51.892;8.384;2023-01-25T04:41:11;102470.34;;;0.62;100.00
17383;BME280;8809;51.892;8.384;2023-01-25T04:46:38;102470.44;;;0.71;100.00
17383;BME280;8809;51.892;8.384;2023-01-25T04:49:07;102472.63;;;0.75;100.00
17383;BME280;8809;51.892;8.384;2023-01-25T04:51:34;102463.75;;;0.80;100.00
17383;BME280;8809;51.892;8.384;2023-01-25T04:54:40;102471.22;;;0.86;100.00
17383;BME280;8809;51.892;8.384;2023-01-25T05:07:54;102470.41;;;0.94;100.00
17383;BME280;8809;51.892;8.384;2023-01-25T05:10:30;102468.00;;;0.95;100.00
17383;BME280;8809;51.892;8.384;2023-01-25T05:12:57;102465.56;;;0.97;100.00
17383;BME280;8809;51.892;8.384;2023-01-25T05:15:24;102457.88;;;0.97;100.00
17383;BME280;8809;51.892;8.384;2023-01-25T05:17:56;102458.47;;;0.94;100.00
17383;BME280;8809;51.892;8.384;2023-01-25T05:20:29;102457.28;;;0.99;100.00
17383;BME280;8809;51.892;8.384;2023-01-25T05:22:59;102457.72;;;0.95;100.00
17383;BME280;8809;51.892;8.384;2023-01-25T05:25:29;102457.47;;;0.85;100.00
17383;BME280;8809;51.892;8.384;2023-01-25T05:28:14;102460.03;;;0.85;100.00
17383;BME280;8809;51.892;8.384;2023-01-25T05:30:43;102463.16;;;0.67;100.00
17383;BME280;8809;51.892;8.384;2023-01-25T05:33:17;102462.88;;;0.57;100.00
17383;BME280;8809;51.892;8.384;2023-01-25T05:36:26;102464.75;;;0.51;100.00
17383;BME280;8809;51.892;8.384;2023-01-25T05:39:16;102465.84;;;0.53;100.00
17383;BME280;8809;51.892;8.384;2023-01-25T05:42:32;102462.91;;;0.50;100.00
17383;BME280;8809;51.892;8.384;2023-01-25T05:45:33;102457.94;;;0.35;100.00
17383;BME280;8809;51.892;8.384;2023-01-25T05:48:27;102461.09;;;0.49;100.00
17383;BME280;8809;51.892;8.384;2023-01-25T05:51:01;102453.25;;;0.47;100.00
17383;BME280;8809;51.892;8.384;2023-01-25T05:58:02;102454.38;;;0.65;100.00
17383;BME280;8809;51.892;8.384;2023-01-25T05:59:56;102450.44;;;0.68;100.00
17383;BME280;8809;51.892;8.384;2023-01-25T06:05:59;102442.00;;;0.69;100.00
17383;BME280;8809;51.892;8.384;2023-01-25T06:08:29;102439.63;;;0.71;100.00
17383;BME280;8809;51.892;8.384;2023-01-25T06:13:50;102436.31;;;0.72;100.00
17383;BME280;8809;51.892;8.384;2023-01-25T06:16:52;102427.50;;;0.70;100.00
17383;BME280;8809;51.892;8.384;2023-01-25T06:19:33;102433.56;;;0.70;100.00
17383;BME280;8809;51.892;8.384;2023-01-25T06:22:01;102439.63;;;0.71;100.00
17383;BME280;8809;51.892;8.384;2023-01-25T06:24:45;102438.53;;;0.69;100.00
17383;BME280;8809;51.892;8.384;2023-01-25T06:27:25;102435.38;;;0.56;100.00
17383;BME280;8809;51.892;8.384;2023-01-25T06:30:08;102428.06;;;0.52;100.00
17383;BME280;8809;51.892;8.384;2023-01-25T06:33:16;102436.34;;;0.49;100.00
17383;BME280;8809;51.892;8.384;2023-01-25T06:39:39;102441.91;;;0.61;100.00
17383;BME280;8809;51.892;8.384;2023-01-25T06:42:27;102448.50;;;0.66;100.00
17383;BME280;8809;51.892;8.384;2023-01-25T06:45:18;102442.91;;;0.70;100.00
17383;BME280;8809;51.892;8.384;2023-01-25T06:51:05;102447.59;;;0.81;100.00
17383;BME280;8809;51.892;8.384;2023-01-25T06:56:28;102449.91;;;0.87;100.00
17383;BME280;8809;51.892;8.384;2023-01-25T06:59:23;102452.63;;;0.88;100.00
17383;BME280;8809;51.892;8.384;2023-01-25T07:02:36;102447.50;;;0.88;100.00
17383;BME280;8809;51.892;8.384;2023-01-25T07:05:20;102452.81;;;0.90;100.00
17383;BME280;8809;51.892;8.384;2023-01-25T07:08:19;102453.72;;;0.90;100.00
17383;BME280;8809;51.892;8.384;2023-01-25T07:17:39;102441.75;;;0.59;100.00
17383;BME280;8809;51.892;8.384;2023-01-25T07:20:29;102445.94;;;0.43;100.00
17383;BME280;8809;51.892;8.384;2023-01-25T07:23:26;102433.38;;;0.30;100.00
17383;BME280;8809;51.892;8.384;2023-01-25T07:26:17;102433.97;;;0.28;100.00
17383;BME280;8809;51.892;8.384;2023-01-25T07:29:29;102437.47;;;0.28;100.00
17383;BME280;8809;51.892;8.384;2023-01-25T07:32:40;102436.75;;;0.22;100.00
17383;BME280;8809;51.892;8.384;2023-01-25T07:46:21;102429.19;;;0.08;100.00
17383;BME280;8809;51.892;8.384;2023-01-25T07:48:50;102422.91;;;0.13;100.00
17383;BME280;8809;51.892;8.384;2023-01-25T07:51:20;102428.16;;;0.22;100.00
17383;BME280;8809;51.892;8.384;2023-01-25T07:58:27;102428.38;;;0.16;100.00
17383;BME280;8809;51.892;8.384;2023-01-25T08:04:59;102426.94;;;0.11;100.00
17383;BME280;8809;51.892;8.384;2023-01-25T08:08:01;102422.41;;;0.09;100.00
17383;BME280;8809;51.892;8.384;2023-01-25T08:22:33;102419.13;;;0.03;100.00
17383;BME280;8809;51.892;8.384;2023-01-25T08:26:17;102423.47;;;-0.12;100.00
17383;BME280;8809;51.892;8.384;2023-01-25T08:30:10;102423.13;;;-0.15;100.00
17383;BME280;8809;51.892;8.384;2023-01-25T08:36:35;102400.03;;;-0.15;100.00
17383;BME280;8809;51.892;8.384;2023-01-25T08:50:50;102403.75;;;-0.20;100.00
17383;BME280;8809;51.892;8.384;2023-01-25T08:53:48;102399.75;;;-0.25;100.00
17383;BME280;8809;51.892;8.384;2023-01-25T08:57:18;102395.56;;;-0.32;100.00
17383;BME280;8809;51.892;8.384;2023-01-25T09:04:04;102389.00;;;-0.37;100.00
17383;BME280;8809;51.892;8.384;2023-01-25T09:23:54;102380.00;;;-0.33;100.00
17383;BME280;8809;51.892;8.384;2023-01-25T09:26:42;102377.84;;;-0.38;100.00
17383;BME280;8809;51.892;8.384;2023-01-25T09:29:20;102379.03;;;-0.50;100.00
17383;BME280;8809;51.892;8.384;2023-01-25T09:31:52;102370.97;;;-0.53;100.00
17383;BME280;8809;51.892;8.384;2023-01-25T09:38:51;102368.25;;;-0.54;100.00
17383;BME280;8809;51.892;8.384;2023-01-25T09:48:47;102366.22;;;-0.50;100.00
17383;BME280;8809;51.892;8.384;2023-01-25T09:51:22;102360.34;;;-0.49;100.00
17383;BME280;8809;51.892;8.384;2023-01-25T09:57:52;102355.78;;;-0.51;100.00
17383;BME280;8809;51.892;8.384;2023-01-25T10:04:17;102354.50;;;-0.55;100.00
17383;BME280;8809;51.892;8.384;2023-01-25T10:13:45;102343.78;;;-0.66;100.00
17383;BME280;8809;51.892;8.384;2023-01-25T10:16:39;102349.31;;;-0.70;100.00
17383;BME280;8809;51.892;8.384;2023-01-25T10:19:58;102345.78;;;-0.64;100.00
17383;BME280;8809;51.892;8.384;2023-01-25T10:22:45;102337.72;;;-0.60;100.00
17383;BME280;8809;51.892;8.384;2023-01-25T10:25:46;102342.78;;;-0.53;100.00
17383;BME280;8809;51.892;8.384;2023-01-25T10:32:58;102330.03;;;-0.37;100.00
17383;BME280;8809;51.892;8.384;2023-01-25T10:35:42;102327.59;;;-0.28;100.00
17383;BME280;8809;51.892;8.384;2023-01-25T10:38:40;102316.69;;;-0.19;100.00
17383;BME280;8809;51.892;8.384;2023-01-25T10:41:37;102314.25;;;-0.33;100.00
17383;BME280;8809;51.892;8.384;2023-01-25T10:44:36;102308.69;;;-0.22;100.00
17383;BME280;8809;51.892;8.384;2023-01-25T10:47:21;102307.06;;;-0.28;100.00
17383;BME280;8809;51.892;8.384;2023-01-25T10:50:50;102297.63;;;-0.37;100.00
17383;BME280;8809;51.892;8.384;2023-01-25T10:53:38;102297.50;;;-0.45;100.00
17383;BME280;8809;51.892;8.384;2023-01-25T10:56:49;102302.88;;;-0.51;100.00
17383;BME280;8809;51.892;8.384;2023-01-25T10:59:53;102291.91;;;-0.57;100.00
17383;BME280;8809;51.892;8.384;2023-01-25T11:10:30;102271.88;;;-0.45;100.00
17383;BME280;8809;51.892;8.384;2023-01-25T11:17:32;102261.16;;;-0.34;100.00
17383;BME280;8809;51.892;8.384;2023-01-25T11:20:54;102248.63;;;-0.47;100.00
17383;BME280;8809;51.892;8.384;2023-01-25T11:41:19;102224.59;;;-0.63;100.00
17383;BME280;8809;51.892;8.384;2023-01-25T11:44:08;102218.38;;;-0.65;100.00
17383;BME280;8809;51.892;8.384;2023-01-25T11:46:52;102212.69;;;-0.62;100.00
17383;BME280;8809;51.892;8.384;2023-01-25T11:49:34;102203.66;;;-0.52;100.00
17383;BME280;8809;51.892;8.384;2023-01-25T11:52:17;102195.59;;;-0.55;100.00
17383;BME280;8809;51.892;8.384;2023-01-25T11:54:51;102199.25;;;-0.53;100.00
17383;BME280;8809;51.892;8.384;2023-01-25T11:57:44;102181.78;;;-0.64;100.00
17383;BME280;8809;51.892;8.384;2023-01-25T12:00:23;102172.97;;;-0.59;100.00
17383;BME280;8809;51.892;8.384;2023-01-25T12:05:58;102158.31;;;-0.60;100.00
17383;BME280;8809;51.892;8.384;2023-01-25T12:11:33;102161.72;;;-0.75;100.00
17383;BME280;8809;51.892;8.384;2023-01-25T12:14:19;102149.66;;;-0.76;100.00
17383;BME280;8809;51.892;8.384;2023-01-25T12:17:06;102140.03;;;-0.86;100.00
17383;BME280;8809;51.892;8.384;2023-01-25T12:19:58;102130.88;;;-0.84;100.00
17383;BME280;8809;51.892;8.384;2023-01-25T12:22:55;102125.75;;;-0.84;100.00
17383;BME280;8809;51.892;8.384;2023-01-25T12:25:39;102122.25;;;-0.77;100.00
17383;BME280;8809;51.892;8.384;2023-01-25T12:28:19;102125.91;;;-0.98;100.00
17383;BME280;8809;51.892;8.384;2023-01-25T12:30:56;102115.84;;;-0.96;100.00
17383;BME280;8809;51.892;8.384;2023-01-25T12:33:32;102103.44;;;-0.85;100.00
17383;BME280;8809;51.892;8.384;2023-01-25T12:36:11;102095.84;;;-0.92;100.00
17383;BME280;8809;51.892;8.384;2023-01-25T12:38:49;102086.31;;;-0.93;100.00
17383;BME280;8809;51.892;8.384;2023-01-25T12:41:42;102082.84;;;-0.93;100.00
17383;BME280;8809;51.892;8.384;2023-01-25T12:44:18;102073.44;;;-0.86;100.00
17383;BME280;8809;51.892;8.384;2023-01-25T12:46:58;102068.66;;;-0.83;100.00
17383;BME280;8809;51.892;8.384;2023-01-25T12:50:01;102060.06;;;-0.83;100.00
17383;BME280;8809;51.892;8.384;2023-01-25T12:53:20;102049.44;;;-0.79;100.00
17383;BME280;8809;51.892;8.384;2023-01-25T12:57:08;102039.41;;;-0.85;100.00
17383;BME280;8809;51.892;8.384;2023-01-25T12:59:51;102031.63;;;-0.93;100.00
17383;BME280;8809;51.892;8.384;2023-01-25T13:13:20;102012.97;;;-0.92;100.00
17383;BME280;8809;51.892;8.384;2023-01-25T13:17:08;102006.72;;;-0.87;100.00
17383;BME280;8809;51.892;8.384;2023-01-25T13:19:53;101997.69;;;-0.84;100.00
17383;BME280;8809;51.892;8.384;2023-01-25T13:22:59;101999.59;;;-0.90;100.00
17383;BME280;8809;51.892;8.384;2023-01-25T13:25:43;101988.69;;;-0.80;100.00
17383;BME280;8809;51.892;8.384;2023-01-25T13:28:42;101997.84;;;-0.82;100.00
17383;BME280;8809;51.892;8.384;2023-01-25T13:31:42;101987.44;;;-0.84;100.00
17383;BME280;8809;51.892;8.384;2023-01-25T13:37:23;101974.97;;;-0.96;100.00
17383;BME280;8809;51.892;8.384;2023-01-25T13:42:38;101968.03;;;-0.97;100.00
17383;BME280;8809;51.892;8.384;2023-01-25T13:45:14;101971.63;;;-0.95;100.00
17383;BME280;8809;51.892;8.384;2023-01-25T13:47:59;101970.59;;;-0.97;100.00
17383;BME280;8809;51.892;8.384;2023-01-25T13:50:30;101963.56;;;-0.91;100.00
17383;BME280;8809;51.892;8.384;2023-01-25T13:53:01;101968.84;;;-0.90;100.00
17383;BME280;8809;51.892;8.384;2023-01-25T13:55:37;101960.50;;;-0.80;100.00
17383;BME280;8809;51.892;8.384;2023-01-25T13:58:09;101954.81;;;-0.78;100.00
17383;BME280;8809;51.892;8.384;2023-01-25T14:00:55;101954.97;;;-0.92;100.00
17383;BME280;8809;51.892;8.384;2023-01-25T14:03:46;101950.34;;;-0.87;100.00
17383;BME280;8809;51.892;8.384;2023-01-25T14:06:16;101950.47;;;-0.86;100.00
17383;BME280;8809;51.892;8.384;2023-01-25T14:08:46;101943.31;;;-0.97;100.00
17383;BME280;8809;51.892;8.384;2023-01-25T14:11:41;101949.41;;;-1.03;100.00
17383;BME280;8809;51.892;8.384;2023-01-25T14:17:30;101934.22;;;-1.02;100.00
17383;BME280;8809;51.892;8.384;2023-01-25T14:20:23;101930.34;;;-0.98;100.00
17383;BME280;8809;51.892;8.384;2023-01-25T14:23:37;101932.41;;;-1.03;100.00
17383;BME280;8809;51.892;8.384;2023-01-25T14:26:50;101930.00;;;-1.01;100.00
17383;BME280;8809;51.892;8.384;2023-01-25T14:31:44;101932.09;;;-1.06;100.00
17383;BME280;8809;51.892;8.384;2023-01-25T14:33:20;101932.97;;;-1.05;100.00
17383;BME280;8809;51.892;8.384;2023-01-25T14:36:17;101929.75;;;-0.96;100.00
17383;BME280;8809;51.892;8.384;2023-01-25T14:39:21;101931.00;;;-0.92;100.00
17383;BME280;8809;51.892;8.384;2023-01-25T14:42:24;101930.78;;;-0.87;100.00
17383;BME280;8809;51.892;8.384;2023-01-25T14:48:41;101925.66;;;-0.87;100.00
17383;BME280;8809;51.892;8.384;2023-01-25T14:51:13;101920.53;;;-0.87;100.00
17383;BME280;8809;51.892;8.384;2023-01-25T14:53:43;101923.09;;;-0.87;100.00
17383;BME280;8809;51.892;8.384;2023-01-25T14:57:02;101915.69;;;-0.84;100.00
17383;BME280;8809;51.892;8.384;2023-01-25T15:07:04;101905.72;;;-0.89;100.00
17383;BME280;8809;51.892;8.384;2023-01-25T15:10:20;101909.38;;;-0.87;100.00
17383;BME280;8809;51.892;8.384;2023-01-25T15:13:18;101901.59;;;-0.80;100.00
17383;BME280;8809;51.892;8.384;2023-01-25T15:16:02;101900.75;;;-0.72;100.00
17383;BME280;8809;51.892;8.384;2023-01-25T15:18:48;101894.03;;;-0.63;100.00
17383;BME280;8809;51.892;8.384;2023-01-25T15:21:34;101899.09;;;-0.71;100.00
17383;BME280;8809;51.892;8.384;2023-01-25T15:24:14;101885.88;;;-0.83;100.00
17383;BME280;8809;51.892;8.384;2023-01-25T15:26:55;101883.31;;;-0.83;100.00
17383;BME280;8809;51.892;8.384;2023-01-25T15:29:23;101887.75;;;-0.73;100.00
17383;BME280;8809;51.892;8.384;2023-01-25T15:31:53;101882.06;;;-0.71;100.00
17383;BME280;8809;51.892;8.384;2023-01-25T15:34:32;101875.19;;;-0.63;100.00
17383;BME280;8809;51.892;8.384;2023-01-25T15:36:59;101872.03;;;-0.61;100.00
17383;BME280;8809;51.892;8.384;2023-01-25T15:39:26;101875.25;;;-0.55;100.00
17383;BME280;8809;51.892;8.384;2023-01-25T15:41:59;101884.00;;;-0.53;100.00
17383;BME280;8809;51.892;8.384;2023-01-25T15:44:28;101885.38;;;-0.48;100.00
17383;BME280;8809;51.892;8.384;2023-01-25T15:46:57;101886.72;;;-0.51;100.00
17383;BME280;8809;51.892;8.384;2023-01-25T15:49:29;101865.94;;;-0.46;100.00
17383;BME280;8809;51.892;8.384;2023-01-25T15:51:57;101857.84;;;-0.42;100.00
17383;BME280;8809;51.892;8.384;2023-01-25T15:54:53;101851.97;;;-0.41;100.00
17383;BME280;8809;51.892;8.384;2023-01-25T15:57:25;101847.72;;;-0.49;100.00
17383;BME280;8809;51.892;8.384;2023-01-25T16:00:09;101852.97;;;-0.47;100.00
17383;BME280;8809;51.892;8.384;2023-01-25T16:02:50;101859.06;;;-0.62;100.00
17383;BME280;8809;51.892;8.384;2023-01-25T16:08:31;101864.88;;;-0.48;100.00
17383;BME280;8809;51.892;8.384;2023-01-25T16:11:11;101858.09;;;-0.47;100.00
17383;BME280;8809;51.892;8.384;2023-01-25T16:13:46;101843.63;;;-0.47;100.00
17383;BME280;8809;51.892;8.384;2023-01-25T16:16:50;101852.06;;;-0.48;100.00
17383;BME280;8809;51.892;8.384;2023-01-25T16:19:23;101849.38;;;-0.49;100.00
17383;BME280;8809;51.892;8.384;2023-01-25T16:39:36;101836.28;;;-0.68;100.00
17383;BME280;8809;51.892;8.384;2023-01-25T16:42:05;101829.50;;;-0.67;100.00
17383;BME280;8809;51.892;8.384;2023-01-25T16:45:00;101829.69;;;-0.57;100.00
17383;BME280;8809;51.892;8.384;2023-01-25T16:47:44;101828.47;;;-0.61;100.00
17383;BME280;8809;51.892;8.384;2023-01-25T16:50:22;101821.25;;;-0.56;100.00
17383;BME280;8809;51.892;8.384;2023-01-25T17:05:11;101813.31;;;-0.51;100.00
17383;BME280;8809;51.892;8.384;2023-01-25T17:42:58;101775.94;;;-0.73;100.00
17383;BME280;8809;51.892;8.384;2023-01-25T17:45:27;101776.22;;;-0.79;100.00
17383;BME280;8809;51.892;8.384;2023-01-25T17:48:03;101777.75;;;-0.72;100.00
17383;BME280;8809;51.892;8.384;2023-01-25T17:50:30;101775.03;;;-0.73;100.00
17383;BME280;8809;51.892;8.384;2023-01-25T17:53:08;101780.50;;;-0.70;100.00
17383;BME280;8809;51.892;8.384;2023-01-25T17:55:40;101781.44;;;-0.61;100.00
17383;BME280;8809;51.892;8.384;2023-01-25T17:58:07;101791.53;;;-0.63;100.00
17383;BME280;8809;51.892;8.384;2023-01-25T18:00:38;101794.41;;;-0.60;100.00
17383;BME280;8809;51.892;8.384;2023-01-25T18:03:08;101799.84;;;-0.57;100.00
17383;BME280;8809;51.892;8.384;2023-01-25T18:05:44;101794.72;;;-0.57;100.00
17383;BME280;8809;51.892;8.384;2023-01-25T18:08:14;101796.53;;;-0.56;100.00
17383;BME280;8809;51.892;8.384;2023-01-25T18:10:41;101787.94;;;-0.56;100.00
17383;BME280;8809;51.892;8.384;2023-01-25T18:13:08;101779.97;;;-0.59;100.00
17383;BME280;8809;51.892;8.384;2023-01-25T18:15:35;101776.31;;;-0.61;100.00
17383;BME280;8809;51.892;8.384;2023-01-25T18:18:06;101775.47;;;-0.78;100.00
17383;BME280;8809;51.892;8.384;2023-01-25T18:20:33;101775.91;;;-0.82;100.00
17383;BME280;8809;51.892;8.384;2023-01-25T18:23:10;101771.63;;;-0.90;100.00
17383;BME280;8809;51.892;8.384;2023-01-25T18:26:06;101757.34;;;-0.88;100.00
17383;BME280;8809;51.892;8.384;2023-01-25T18:28:52;101751.47;;;-0.87;100.00
17383;BME280;8809;51.892;8.384;2023-01-25T18:31:24;101752.66;;;-0.83;100.00
17383;BME280;8809;51.892;8.384;2023-01-25T18:33:52;101750.28;;;-0.82;100.00
17383;BME280;8809;51.892;8.384;2023-01-25T18:36:27;101744.75;;;-0.78;100.00
17383;BME280;8809;51.892;8.384;2023-01-25T18:38:56;101744.28;;;-0.73;100.00
17383;BME280;8809;51.892;8.384;2023-01-25T18:41:30;101750.50;;;-0.71;100.00
17383;BME280;8809;51.892;8.384;2023-01-25T18:44:03;101746.59;;;-0.68;100.00
17383;BME280;8809;51.892;8.384;2023-01-25T18:46:30;101745.53;;;-0.70;100.00
17383;BME280;8809;51.892;8.384;2023-01-25T18:49:05;101745.53;;;-0.70;100.00
17383;BME280;8809;51.892;8.384;2023-01-25T18:51:32;101740.56;;;-0.68;100.00
17383;BME280;8809;51.892;8.384;2023-01-25T18:54:04;101733.00;;;-0.67;100.00
17383;BME280;8809;51.892;8.384;2023-01-25T18:56:39;101734.81;;;-0.66;100.00
17383;BME280;8809;51.892;8.384;2023-01-25T18:59:15;101729.72;;;-0.66;100.00
17383;BME280;8809;51.892;8.384;2023-01-25T19:05:57;101728.97;;;-0.65;100.00
17383;BME280;8809;51.892;8.384;2023-01-25T19:09:10;101712.09;;;-0.63;100.00
17383;BME280;8809;51.892;8.384;2023-01-25T19:11:45;101703.66;;;-0.62;100.00
17383;BME280;8809;51.892;8.384;2023-01-25T19:14:26;101706.66;;;-0.66;100.00
17383;BME280;8809;51.892;8.384;2023-01-25T19:17:29;101706.94;;;-0.71;100.00